Time;durP1;ratioP1;P1;durP2;ratioP2;P2;SDS_P1;SDS_P2;PMS_P1;PMS_P2;Temp;Humidity;BMP_temperature;BMP_pressure;BME280_temperature;BME280_humidity;BME280_pressure;Samples;Min_cycle;Max_cycle;Signal;HPM_P1;HPM_P2
2023/05/06 00:00:17;;;;;;;20.80;11.70;;;;;;;;;;107930;1247;24092;-78
2023/05/06 00:03:03;;;;;;;20.80;12.70;;;;;;;;;;107871;1248;22522;-79
2023/05/06 00:05:30;;;;;;;22.70;13.70;;;;;;;;;;107888;1253;23146;-77
2023/05/06 00:07:56;;;;;;;22.70;12.40;;;;;;;;;;107923;1247;23065;-78
2023/05/06 00:10:22;;;;;;;21.00;11.90;;;;;;;;;;107863;1247;25329;-76
2023/05/06 00:12:49;;;;;;;23.60;13.00;;;;;;;;;;107878;1247;22515;-76
2023/05/06 00:15:15;;;;;;;25.10;13.80;;;;;;;;;;107871;1251;25309;-76
2023/05/06 00:17:41;;;;;;;20.90;13.20;;;;;;;;;;107878;1248;22531;-78
2023/05/06 00:20:09;;;;;;;25.90;12.00;;;;;;;;;;109691;1247;23052;-76
2023/05/06 00:22:35;;;;;;;22.40;12.20;;;;;;;;;;111004;1247;22178;-77
2023/05/06 00:25:01;;;;;;;22.40;11.90;;;;;;;;;;111053;1247;22820;-77
2023/05/06 00:27:28;;;;;;;21.70;12.20;;;;;;;;;;111019;1248;22324;-77
2023/05/06 00:29:54;;;;;;;26.60;13.10;;;;;;;;;;111016;1250;22549;-77
2023/05/06 00:32:21;;;;;;;20.70;12.00;;;;;;;;;;111057;1247;22391;-77
2023/05/06 00:34:48;;;;;;;30.10;12.90;;;;;;;;;;110945;1248;22356;-77
2023/05/06 00:37:14;;;;;;;24.10;12.70;;;;;;;;;;111041;1247;22765;-77
2023/05/06 00:39:40;;;;;;;23.10;13.00;;;;;;;;;;111024;1247;22841;-79
2023/05/06 00:42:07;;;;;;;21.70;12.20;;;;;;;;;;110999;1248;22366;-77
2023/05/06 00:44:33;;;;;;;19.60;11.50;;;;;;;;;;111008;1247;22775;-78
2023/05/06 00:46:59;;;;;;;23.60;13.30;;;;;;;;;;111023;1248;22194;-78
2023/05/06 00:49:26;;;;;;;20.90;11.70;;;;;;;;;;110987;1248;22373;-76
2023/05/06 00:51:52;;;;;;;22.40;13.10;;;;;;;;;;110892;1247;22354;-79
2023/05/06 00:54:19;;;;;;;19.30;12.30;;;;;;;;;;110317;1247;22574;-79
2023/05/06 00:56:45;;;;;;;22.00;12.10;;;;;;;;;;107842;1247;24233;-76
2023/05/06 00:59:11;;;;;;;25.00;11.70;;;;;;;;;;108248;1247;22282;-76
2023/05/06 01:01:37;;;;;;;21.90;11.60;;;;;;;;;;110829;1250;22241;-76
2023/05/06 01:04:05;;;;;;;17.80;10.90;;;;;;;;;;110841;1250;22884;-78
2023/05/06 01:06:32;;;;;;;20.30;12.50;;;;;;;;;;109881;1250;22594;-77
2023/05/06 01:09:13;;;;;;;18.00;10.70;;;;;;;;;;107690;1251;25349;-78
2023/05/06 01:11:43;;;;;;;20.40;10.70;;;;;;;;;;107692;1251;22525;-77
2023/05/06 01:14:09;;;;;;;;;;;;;;;;;;107704;1250;22512;-76
2023/05/06 01:16:36;;;;;;;17.90;10.00;;;;;;;;;;107655;1251;22967;-76
2023/05/06 01:19:02;;;;;;;15.90;10.10;;;;;;;;;;107682;1250;22663;-78
2023/05/06 01:21:33;;;;;;;17.10;10.90;;;;;;;;;;107680;1251;23130;-79
2023/05/06 01:23:59;;;;;;;23.70;11.60;;;;;;;;;;107643;1251;22621;-79
2023/05/06 01:26:26;;;;;;;18.90;10.90;;;;;;;;;;107662;1253;25329;-78
2023/05/06 01:28:52;;;;;;;17.70;10.90;;;;;;;;;;107760;1248;22519;-78
2023/05/06 01:31:39;;;;;;;20.80;11.20;;;;;;;;;;107871;1247;22515;-76
2023/05/06 01:34:12;;;;;;;16.70;9.80;;;;;;;;;;108483;1253;23097;-78
2023/05/06 01:36:52;;;;;;;19.90;9.60;;;;;;;;;;107836;1251;22529;-76
2023/05/06 01:39:25;;;;;;;17.50;11.30;;;;;;;;;;108417;1248;22236;-77
2023/05/06 01:41:52;;;;;;;25.20;10.30;;;;;;;;;;109693;1248;22603;-78
2023/05/06 01:44:20;;;;;;;18.70;10.00;;;;;;;;;;107811;1248;24193;-76
2023/05/06 01:46:46;;;;;;;18.60;10.10;;;;;;;;;;107865;1251;22868;-76
2023/05/06 01:49:13;;;;;;;17.20;9.70;;;;;;;;;;107925;1250;22973;-78
2023/05/06 01:51:39;;;;;;;16.70;9.40;;;;;;;;;;107719;1248;24364;-78
2023/05/06 01:54:05;;;;;;;15.40;9.40;;;;;;;;;;107909;1253;22518;-76
2023/05/06 01:56:32;;;;;;;16.10;10.50;;;;;;;;;;107910;1250;22518;-76
2023/05/06 01:58:58;;;;;;;15.80;9.90;;;;;;;;;;107767;1248;167959;-76
2023/05/06 02:01:24;;;;;;;17.50;9.00;;;;;;;;;;107728;1251;22604;-78
2023/05/06 02:03:51;;;;;;;16.90;11.60;;;;;;;;;;107879;1251;25436;-78
2023/05/06 02:06:17;;;;;;;21.30;9.30;;;;;;;;;;107924;1252;25265;-76
2023/05/06 02:08:43;;;;;;;18.90;9.50;;;;;;;;;;107871;1251;25332;-76
2023/05/06 02:11:10;;;;;;;18.90;11.40;;;;;;;;;;107944;1253;22525;-78
2023/05/06 02:13:36;;;;;;;16.20;9.60;;;;;;;;;;107916;1248;22614;-78
2023/05/06 02:16:02;;;;;;;18.40;9.50;;;;;;;;;;107886;1248;22947;-78
2023/05/06 02:18:29;;;;;;;17.10;9.70;;;;;;;;;;107921;1251;24215;-76
2023/05/06 02:20:55;;;;;;;17.90;9.90;;;;;;;;;;107968;1248;22543;-78
2023/05/06 02:23:21;;;;;;;17.30;10.10;;;;;;;;;;107674;1254;25436;-78
2023/05/06 02:25:49;;;;;;;14.30;8.50;;;;;;;;;;107957;1248;22569;-76
2023/05/06 02:28:15;;;;;;;15.80;8.90;;;;;;;;;;107882;1248;23615;-78
2023/05/06 02:30:41;;;;;;;20.80;10.40;;;;;;;;;;107941;1252;24256;-78
2023/05/06 02:33:08;;;;;;;16.00;10.60;;;;;;;;;;107928;1253;22527;-78
2023/05/06 02:35:34;;;;;;;15.10;10.40;;;;;;;;;;107922;1252;24188;-77
2023/05/06 02:38:00;;;;;;;15.20;9.40;;;;;;;;;;107876;1250;24331;-78
2023/05/06 02:40:27;;;;;;;18.60;10.80;;;;;;;;;;110063;1247;22380;-78
2023/05/06 02:42:53;;;;;;;15.40;10.00;;;;;;;;;;111031;1248;22234;-78
2023/05/06 02:45:20;;;;;;;24.90;9.30;;;;;;;;;;107896;1248;22567;-76
2023/05/06 02:47:46;;;;;;;13.60;9.50;;;;;;;;;;107907;1253;25378;-78
2023/05/06 02:50:12;;;;;;;17.00;9.70;;;;;;;;;;107938;1253;22521;-76
2023/05/06 02:52:39;;;;;;;14.50;9.60;;;;;;;;;;107888;1248;22525;-78
2023/05/06 02:55:05;;;;;;;14.80;8.50;;;;;;;;;;107869;1248;24581;-77
2023/05/06 02:57:32;;;;;;;14.10;9.80;;;;;;;;;;107892;1248;22534;-76
2023/05/06 02:59:58;;;;;;;15.00;9.70;;;;;;;;;;109063;1247;23053;-77
2023/05/06 03:02:24;;;;;;;16.10;9.30;;;;;;;;;;107821;1250;22521;-79
2023/05/06 03:04:51;;;;;;;19.00;10.20;;;;;;;;;;109103;1250;22174;-78
2023/05/06 03:07:17;;;;;;;12.40;8.90;;;;;;;;;;110862;1251;22459;-80
2023/05/06 03:09:43;;;;;;;14.60;9.30;;;;;;;;;;110849;1251;22461;-76
2023/05/06 03:12:10;;;;;;;18.00;10.60;;;;;;;;;;110834;1251;22180;-76
2023/05/06 03:14:37;;;;;;;13.50;9.20;;;;;;;;;;110864;1250;22276;-77
2023/05/06 03:17:03;;;;;;;18.40;10.60;;;;;;;;;;109314;1253;26384;-77
2023/05/06 03:19:29;;;;;;;15.60;10.30;;;;;;;;;;107895;1247;24218;-79
2023/05/06 03:21:56;;;;;;;14.60;9.20;;;;;;;;;;107869;1248;22514;-77
2023/05/06 03:24:22;;;;;;;15.00;9.10;;;;;;;;;;107924;1253;22533;-79
2023/05/06 03:26:49;;;;;;;18.10;9.90;;;;;;;;;;107890;1253;22524;-77
2023/05/06 03:29:16;;;;;;;17.80;8.70;;;;;;;;;;107899;1247;23228;-79
2023/05/06 03:31:42;;;;;;;18.00;9.40;;;;;;;;;;107708;1248;22673;-77
2023/05/06 03:34:08;;;;;;;18.10;9.60;;;;;;;;;;107881;1253;25405;-79
2023/05/06 03:36:35;;;;;;;16.00;8.70;;;;;;;;;;107859;1248;22605;-77
2023/05/06 03:39:01;;;;;;;14.40;8.20;;;;;;;;;;107901;1252;22518;-77
2023/05/06 03:41:28;;;;;;;13.70;9.10;;;;;;;;;;107923;1248;22514;-80
2023/05/06 03:43:54;;;;;;;22.70;9.80;;;;;;;;;;107896;1252;23212;-77
2023/05/06 03:46:21;;;;;;;17.90;8.50;;;;;;;;;;107924;1247;24080;-79
2023/05/06 03:48:47;;;;;;;16.00;9.70;;;;;;;;;;110561;1248;23161;-78
2023/05/06 03:51:13;;;;;;;17.10;9.90;;;;;;;;;;109775;1248;22607;-77
2023/05/06 03:53:40;;;;;;;18.20;10.60;;;;;;;;;;107877;1252;24208;-78
2023/05/06 03:56:06;;;;;;;14.70;9.70;;;;;;;;;;107888;1254;25265;-79
2023/05/06 03:58:32;;;;;;;13.90;9.80;;;;;;;;;;107860;1247;24336;-79
2023/05/06 04:00:59;;;;;;;17.80;10.80;;;;;;;;;;107804;1253;25320;-77
2023/05/06 04:03:26;;;;;;;15.10;9.50;;;;;;;;;;107912;1247;22567;-77
2023/05/06 04:05:52;;;;;;;15.60;9.50;;;;;;;;;;107865;1253;22556;-77
2023/05/06 04:08:18;;;;;;;14.30;9.80;;;;;;;;;;107903;1253;22526;-77
2023/05/06 04:10:45;;;;;;;15.70;10.50;;;;;;;;;;107921;1253;23234;-79
2023/05/06 04:13:11;;;;;;;16.60;9.60;;;;;;;;;;107868;1253;25315;-77
2023/05/06 04:15:37;;;;;;;18.90;9.60;;;;;;;;;;108554;1248;24353;-77
2023/05/06 04:18:05;;;;;;;17.60;10.80;;;;;;;;;;108346;1247;23757;-77
2023/05/06 04:20:31;;;;;;;15.70;9.90;;;;;;;;;;110193;1248;22284;-77
2023/05/06 04:22:57;;;;;;;19.40;9.60;;;;;;;;;;109342;1247;23010;-77
2023/05/06 04:25:24;;;;;;;16.50;9.70;;;;;;;;;;108286;1253;24191;-77
2023/05/06 04:27:50;;;;;;;18.10;10.50;;;;;;;;;;107899;1247;25214;-77
2023/05/06 04:30:16;;;;;;;14.50;9.30;;;;;;;;;;108350;1247;22545;-79
2023/05/06 04:32:43;;;;;;;14.60;10.40;;;;;;;;;;107929;1253;25497;-77
2023/05/06 04:35:09;;;;;;;20.50;10.60;;;;;;;;;;109716;1248;22421;-78
2023/05/06 04:37:35;;;;;;;16.20;9.80;;;;;;;;;;108385;1248;23121;-79
2023/05/06 04:40:02;;;;;;;15.60;9.80;;;;;;;;;;107881;1247;25272;-79
2023/05/06 04:42:29;;;;;;;13.60;8.70;;;;;;;;;;107858;1254;23083;-77
2023/05/06 04:44:57;;;;;;;14.60;9.20;;;;;;;;;;107900;1248;22534;-77
2023/05/06 04:47:24;;;;;;;13.70;8.90;;;;;;;;;;107854;1253;23232;-79
2023/05/06 04:49:50;;;;;;;16.80;9.50;;;;;;;;;;107863;1253;25358;-79
2023/05/06 04:52:17;;;;;;;14.40;8.60;;;;;;;;;;107893;1247;25368;-77
2023/05/06 04:54:43;;;;;;;15.50;8.80;;;;;;;;;;107880;1247;23343;-79
2023/05/06 04:57:10;;;;;;;15.70;9.00;;;;;;;;;;107880;1248;22602;-79
2023/05/06 04:59:36;;;;;;;12.80;8.70;;;;;;;;;;107920;1252;25252;-79
2023/05/06 05:02:02;;;;;;;19.50;11.10;;;;;;;;;;107818;1251;22516;-80
2023/05/06 05:04:29;;;;;;;16.60;9.40;;;;;;;;;;107796;1251;25361;-77
2023/05/06 05:06:56;;;;;;;14.90;8.80;;;;;;;;;;107620;1253;22955;-79
2023/05/06 05:09:22;;;;;;;17.70;9.30;;;;;;;;;;107662;1250;25373;-77
2023/05/06 05:11:49;;;;;;;15.90;8.40;;;;;;;;;;107709;1251;22522;-77
2023/05/06 05:14:15;;;;;;;14.60;8.40;;;;;;;;;;107795;1253;25402;-81
2023/05/06 05:16:42;;;;;;;12.80;8.90;;;;;;;;;;107652;1251;25493;-77
2023/05/06 05:19:08;;;;;;;12.60;8.00;;;;;;;;;;107650;1251;23265;-79
2023/05/06 05:21:35;;;;;;;21.00;11.60;;;;;;;;;;107660;1253;26465;-77
2023/05/06 05:24:01;;;;;;;15.20;8.40;;;;;;;;;;108134;1251;22684;-80
2023/05/06 05:26:28;;;;;;;14.50;9.60;;;;;;;;;;107673;1250;24092;-79
2023/05/06 05:28:54;;;;;;;14.90;9.00;;;;;;;;;;107792;1247;22515;-78
2023/05/06 05:31:20;;;;;;;13.80;9.50;;;;;;;;;;107873;1248;22505;-79
2023/05/06 05:33:47;;;;;;;11.80;8.30;;;;;;;;;;107875;1247;23037;-77
2023/05/06 05:36:14;;;;;;;13.00;9.80;;;;;;;;;;107654;1247;23268;-80
2023/05/06 05:38:40;;;;;;;12.50;9.10;;;;;;;;;;107834;1247;24221;-79
2023/05/06 05:41:07;;;;;;;15.60;9.30;;;;;;;;;;107857;1248;23204;-77
2023/05/06 05:43:33;;;;;;;20.40;8.90;;;;;;;;;;107876;1247;25504;-79
2023/05/06 05:45:59;;;;;;;12.60;8.60;;;;;;;;;;107845;1253;22530;-77
2023/05/06 05:48:26;;;;;;;22.20;10.10;;;;;;;;;;107866;1252;22519;-77
2023/05/06 05:50:52;;;;;;;12.60;9.10;;;;;;;;;;107871;1248;24318;-80
2023/05/06 05:53:18;;;;;;;17.80;9.40;;;;;;;;;;107900;1247;23278;-79
2023/05/06 05:55:45;;;;;;;16.60;10.00;;;;;;;;;;107861;1247;25501;-77
2023/05/06 05:58:11;;;;;;;16.50;7.90;;;;;;;;;;107887;1247;22518;-78
2023/05/06 06:00:38;;;;;;;14.60;9.40;;;;;;;;;;107834;1247;22525;-76
2023/05/06 06:03:04;;;;;;;16.20;10.10;;;;;;;;;;107776;1247;24928;-78
2023/05/06 06:05:30;;;;;;;15.90;8.20;;;;;;;;;;107896;1247;24166;-78
2023/05/06 06:07:57;;;;;;;11.40;7.70;;;;;;;;;;107864;1247;23097;-77
2023/05/06 06:10:23;;;;;;;12.80;8.10;;;;;;;;;;108139;1247;24184;-79
2023/05/06 06:12:50;;;;;;;12.20;8.60;;;;;;;;;;107911;1252;23350;-79
2023/05/06 06:15:16;;;;;;;16.00;7.60;;;;;;;;;;108141;1248;22523;-79
2023/05/06 06:17:42;;;;;;;11.90;7.20;;;;;;;;;;107888;1247;24190;-77
2023/05/06 06:20:09;;;;;;;11.60;7.10;;;;;;;;;;108761;1248;25339;-77
2023/05/06 06:22:36;;;;;;;15.00;8.70;;;;;;;;;;107907;1247;22527;-77
2023/05/06 06:25:02;;;;;;;12.30;8.70;;;;;;;;;;107887;1248;22520;-77
2023/05/06 06:27:28;;;;;;;10.90;7.40;;;;;;;;;;107874;1248;22650;-77
2023/05/06 06:29:55;;;;;;;19.90;12.00;;;;;;;;;;107918;1253;25258;-79
2023/05/06 06:32:21;;;;;;;21.20;11.70;;;;;;;;;;107828;1247;24247;-78
2023/05/06 06:34:47;;;;;;;14.50;9.00;;;;;;;;;;107890;1247;22664;-77
2023/05/06 06:37:14;;;;;;;15.40;8.00;;;;;;;;;;107872;1247;22518;-79
2023/05/06 06:39:40;;;;;;;16.40;7.40;;;;;;;;;;107891;1247;22718;-79
2023/05/06 06:42:06;;;;;;;12.40;8.00;;;;;;;;;;107940;1248;24215;-79
2023/05/06 06:44:33;;;;;;;13.70;7.50;;;;;;;;;;107828;1247;25400;-77
2023/05/06 06:46:59;;;;;;;12.70;8.10;;;;;;;;;;107870;1253;22541;-80
2023/05/06 06:49:26;;;;;;;15.90;8.90;;;;;;;;;;107839;1247;22524;-79
2023/05/06 06:51:52;;;;;;;15.00;9.80;;;;;;;;;;107846;1248;23218;-80
2023/05/06 06:54:18;;;;;;;20.80;9.10;;;;;;;;;;107879;1252;22530;-79
2023/05/06 06:56:45;;;;;;;12.70;8.80;;;;;;;;;;107801;1248;22634;-77
2023/05/06 06:59:11;;;;;;;13.60;8.00;;;;;;;;;;108410;1247;22107;-78
2023/05/06 07:01:37;;;;;;;17.40;7.80;;;;;;;;;;108137;1251;22613;-80
2023/05/06 07:04:04;;;;;;;10.70;7.20;;;;;;;;;;108024;1250;22404;-77
2023/05/06 07:06:30;;;;;;;14.80;8.50;;;;;;;;;;107672;1253;24192;-77
2023/05/06 07:08:57;;;;;;;13.10;7.20;;;;;;;;;;107671;1249;23247;-77
2023/05/06 07:11:23;;;;;;;13.10;7.90;;;;;;;;;;107694;1251;25217;-79
2023/05/06 07:13:49;;;;;;;11.40;7.30;;;;;;;;;;107670;1251;22556;-77
2023/05/06 07:16:16;;;;;;;10.50;6.70;;;;;;;;;;107797;1247;22527;-77
2023/05/06 07:18:42;;;;;;;14.80;9.60;;;;;;;;;;107942;1253;24985;-80
2023/05/06 07:21:08;;;;;;;15.90;7.40;;;;;;;;;;107847;1248;22523;-77
2023/05/06 07:23:34;;;;;;;13.50;9.00;;;;;;;;;;107676;1250;22519;-77
2023/05/06 07:26:01;;;;;;;14.80;7.70;;;;;;;;;;107881;1250;22566;-77
2023/05/06 07:28:27;;;;;;;12.40;8.60;;;;;;;;;;107898;1252;22540;-78
2023/05/06 07:30:54;;;;;;;14.70;9.90;;;;;;;;;;107939;1251;22540;-78
2023/05/06 07:33:20;;;;;;;11.30;7.00;;;;;;;;;;107991;1247;22576;-81
2023/05/06 07:35:46;;;;;;;14.80;8.20;;;;;;;;;;108121;1250;24346;-79
2023/05/06 07:38:13;;;;;;;14.50;7.10;;;;;;;;;;107847;1250;22520;-76
2023/05/06 07:40:39;;;;;;;10.40;7.50;;;;;;;;;;108184;1250;25392;-79
2023/05/06 07:43:06;;;;;;;13.40;8.20;;;;;;;;;;107950;1247;24964;-79
2023/05/06 07:45:33;;;;;;;11.60;7.30;;;;;;;;;;107846;1247;23546;-77
2023/05/06 07:47:59;;;;;;;12.20;7.80;;;;;;;;;;107943;1247;22733;-76
2023/05/06 07:50:25;;;;;;;16.10;10.40;;;;;;;;;;108179;1247;22546;-76
2023/05/06 07:52:52;;;;;;;15.20;9.50;;;;;;;;;;107817;1248;22546;-79
2023/05/06 07:55:18;;;;;;;14.90;9.30;;;;;;;;;;107706;1247;25500;-77
2023/05/06 07:57:44;;;;;;;17.20;9.80;;;;;;;;;;107882;1247;22528;-77
2023/05/06 08:00:11;;;;;;;16.00;9.00;;;;;;;;;;107882;1247;22564;-80
2023/05/06 08:02:42;;;;;;;24.50;10.50;;;;;;;;;;107786;1247;26656;-80
2023/05/06 08:05:09;;;;;;;11.30;8.50;;;;;;;;;;107841;1247;24284;-77
2023/05/06 08:07:36;;;;;;;14.30;10.20;;;;;;;;;;107836;1248;22565;-80
2023/05/06 08:10:02;;;;;;;17.10;8.40;;;;;;;;;;108310;1252;22538;-77
2023/05/06 08:12:29;;;;;;;19.00;8.80;;;;;;;;;;107864;1247;23416;-77
2023/05/06 08:14:55;;;;;;;19.80;15.00;;;;;;;;;;107858;1248;24243;-77
2023/05/06 08:17:22;;;;;;;16.70;11.30;;;;;;;;;;107815;1247;24281;-80
2023/05/06 08:19:48;;;;;;;24.50;18.70;;;;;;;;;;107799;1247;22869;-80
2023/05/06 08:22:15;;;;;;;16.80;11.50;;;;;;;;;;107815;1247;22543;-77
2023/05/06 08:24:41;;;;;;;21.10;12.80;;;;;;;;;;107835;1253;22539;-80
2023/05/06 08:27:08;;;;;;;13.40;7.60;;;;;;;;;;107719;1250;22522;-77
2023/05/06 08:29:34;;;;;;;11.30;8.10;;;;;;;;;;107797;1248;23122;-78
2023/05/06 08:32:01;;;;;;;10.30;8.00;;;;;;;;;;107855;1247;23174;-78
2023/05/06 08:34:27;;;;;;;9.50;7.20;;;;;;;;;;107849;1248;22519;-78
2023/05/06 08:36:53;;;;;;;8.80;7.90;;;;;;;;;;107870;1247;25373;-81
2023/05/06 08:39:19;;;;;;;13.40;8.00;;;;;;;;;;108291;1248;22600;-78
2023/05/06 08:41:46;;;;;;;12.10;7.60;;;;;;;;;;107859;1247;22564;-78
2023/05/06 08:44:17;;;;;;;11.50;6.90;;;;;;;;;;107840;1247;24225;-81
2023/05/06 08:46:44;;;;;;;9.40;7.50;;;;;;;;;;107872;1248;25291;-81
2023/05/06 08:49:10;;;;;;;8.60;7.00;;;;;;;;;;108149;1247;22515;-81
2023/05/06 08:51:37;;;;;;;12.20;7.80;;;;;;;;;;107891;1247;22549;-81
2023/05/06 08:54:03;;;;;;;9.30;6.90;;;;;;;;;;107830;1247;22599;-81
2023/05/06 08:56:31;;;;;;;14.00;7.50;;;;;;;;;;107879;1248;22522;-81
2023/05/06 08:58:58;;;;;;;12.70;7.30;;;;;;;;;;107751;1248;22673;-81
2023/05/06 09:01:26;;;;;;;11.20;6.80;;;;;;;;;;107909;1247;26467;-78
2023/05/06 09:03:56;;;;;;;13.80;7.00;;;;;;;;;;107918;1247;22563;-78
2023/05/06 09:06:22;;;;;;;10.70;7.30;;;;;;;;;;107937;1248;25352;-80
2023/05/06 09:08:49;;;;;;;10.70;7.00;;;;;;;;;;107882;1247;23392;-81
2023/05/06 09:11:22;;;;;;;15.60;8.60;;;;;;;;;;107914;1247;22518;-78
2023/05/06 09:13:49;;;;;;;13.10;8.10;;;;;;;;;;107852;1252;23536;-80
2023/05/06 09:16:26;;;;;;;12.70;7.80;;;;;;;;;;107912;1248;22533;-78
2023/05/06 09:18:52;;;;;;;11.10;7.30;;;;;;;;;;107844;1249;22584;-78
2023/05/06 09:21:18;;;;;;;12.10;7.50;;;;;;;;;;109158;1252;25277;-80
2023/05/06 09:23:45;;;;;;;10.30;6.80;;;;;;;;;;107892;1247;24218;-81
2023/05/06 09:26:11;;;;;;;15.90;7.00;;;;;;;;;;107709;1248;25223;-78
2023/05/06 09:28:37;;;;;;;8.50;6.30;;;;;;;;;;107857;1248;24208;-81
2023/05/06 09:31:03;;;;;;;10.70;6.90;;;;;;;;;;107750;1250;25389;-80
2023/05/06 09:33:30;;;;;;;13.90;7.10;;;;;;;;;;107855;1248;24225;-78
2023/05/06 09:35:56;;;;;;;13.30;7.70;;;;;;;;;;107685;1248;22538;-80
2023/05/06 09:38:22;;;;;;;10.50;6.70;;;;;;;;;;107937;1247;25333;-78
2023/05/06 09:40:49;;;;;;;12.10;7.80;;;;;;;;;;107677;1247;22511;-80
2023/05/06 09:43:15;;;;;;;11.20;7.30;;;;;;;;;;107830;1247;25346;-78
2023/05/06 09:45:43;;;;;;;24.40;8.20;;;;;;;;;;107714;1248;22658;-77
2023/05/06 09:48:10;;;;;;;12.20;6.90;;;;;;;;;;107843;1248;25268;-78
2023/05/06 09:50:36;;;;;;;11.50;6.90;;;;;;;;;;107928;1248;23105;-79
2023/05/06 09:53:03;;;;;;;13.00;8.30;;;;;;;;;;107863;1248;22650;-80
2023/05/06 09:55:29;;;;;;;13.70;9.40;;;;;;;;;;107879;1248;23174;-78
2023/05/06 09:57:56;;;;;;;28.10;10.10;;;;;;;;;;107897;1247;24275;-80
2023/05/06 10:00:26;;;;;;;11.60;8.30;;;;;;;;;;107904;1247;22536;-79
2023/05/06 10:02:53;;;;;;;18.50;9.60;;;;;;;;;;107895;1247;22620;-77
2023/05/06 10:05:19;;;;;;;10.10;8.50;;;;;;;;;;107941;1247;22538;-80
2023/05/06 10:07:46;;;;;;;13.00;7.80;;;;;;;;;;107874;1253;25392;-76
2023/05/06 10:10:13;;;;;;;10.90;7.10;;;;;;;;;;107869;1248;22540;-77
2023/05/06 10:12:39;;;;;;;12.00;8.20;;;;;;;;;;107860;1247;22545;-78
2023/05/06 10:15:06;;;;;;;12.50;8.40;;;;;;;;;;107693;1247;22511;-77
2023/05/06 10:17:33;;;;;;;15.10;8.40;;;;;;;;;;107892;1248;22517;-79
2023/05/06 10:19:59;;;;;;;13.90;8.80;;;;;;;;;;107706;1250;22572;-77
2023/05/06 10:22:26;;;;;;;15.80;8.10;;;;;;;;;;107941;1247;23135;-81
2023/05/06 10:24:59;;;;;;;10.40;8.10;;;;;;;;;;107896;1248;22521;-80
2023/05/06 10:27:25;;;;;;;15.60;7.30;;;;;;;;;;107912;1252;22518;-77
2023/05/06 10:29:57;;;;;;;10.60;7.90;;;;;;;;;;107913;1253;22540;-80
2023/05/06 10:32:25;;;;;;;14.50;9.50;;;;;;;;;;109044;1247;23267;-79
2023/05/06 10:34:52;;;;;;;11.60;8.20;;;;;;;;;;108061;1248;22508;-79
2023/05/06 10:37:22;;;;;;;13.60;7.80;;;;;;;;;;108109;1248;22518;-79
2023/05/06 10:39:49;;;;;;;14.50;8.00;;;;;;;;;;108583;1251;25985;-79
2023/05/06 10:42:15;;;;;;;14.40;8.70;;;;;;;;;;107817;1248;22623;-79
2023/05/06 10:44:57;;;;;;;13.50;9.80;;;;;;;;;;107890;1248;24271;-79
2023/05/06 10:47:24;;;;;;;11.60;8.00;;;;;;;;;;108021;1247;25350;-79
2023/05/06 10:50:10;;;;;;;12.50;9.10;;;;;;;;;;108824;1247;24223;-79
2023/05/06 10:52:43;;;;;;;13.60;9.90;;;;;;;;;;108883;1247;26425;-77
2023/05/06 10:55:32;;;;;;;14.20;8.40;;;;;;;;;;107803;1248;22568;-81
2023/05/06 10:58:00;;;;;;;12.30;9.10;;;;;;;;;;107708;1247;24278;-80
2023/05/06 11:00:30;;;;;;;14.60;8.40;;;;;;;;;;107639;1253;22547;-80
2023/05/06 11:02:57;;;;;;;15.00;9.60;;;;;;;;;;107669;1253;25675;-80
2023/05/06 11:05:24;;;;;;;15.00;9.30;;;;;;;;;;107716;1248;22573;-77
2023/05/06 11:07:51;;;;;;;21.30;12.20;;;;;;;;;;107791;1247;22530;-80
2023/05/06 11:10:31;;;;;;;22.10;13.00;;;;;;;;;;107916;1250;22516;-79
2023/05/06 11:12:57;;;;;;;20.80;12.40;;;;;;;;;;107754;1249;23167;-77
2023/05/06 11:15:40;;;;;;;17.20;12.90;;;;;;;;;;107828;1250;22684;-79
2023/05/06 11:18:25;;;;;;;21.60;13.10;;;;;;;;;;107736;1250;23029;-80
2023/05/06 11:21:01;;;;;;;24.80;15.30;;;;;;;;;;107797;1253;25403;-80
2023/05/06 11:23:40;;;;;;;21.40;13.80;;;;;;;;;;107670;1253;24834;-79
2023/05/06 11:26:07;;;;;;;20.60;12.90;;;;;;;;;;107956;1249;23167;-80
2023/05/06 11:28:33;;;;;;;21.50;13.10;;;;;;;;;;108002;1247;22640;-77
2023/05/06 11:31:00;;;;;;;20.70;12.60;;;;;;;;;;108056;1247;22514;-79
2023/05/06 11:33:33;;;;;;;20.80;12.80;;;;;;;;;;107996;1247;22614;-79
2023/05/06 11:35:59;;;;;;;17.60;12.30;;;;;;;;;;107963;1247;23172;-79
2023/05/06 11:38:38;;;;;;;19.50;12.70;;;;;;;;;;107883;1247;25207;-77
2023/05/06 11:41:04;;;;;;;25.10;12.50;;;;;;;;;;107750;1247;24247;-81
2023/05/06 11:43:30;;;;;;;19.40;12.40;;;;;;;;;;107788;1250;22526;-78
2023/05/06 11:45:57;;;;;;;19.00;11.70;;;;;;;;;;107805;1248;25334;-78
2023/05/06 11:48:23;;;;;;;19.20;12.00;;;;;;;;;;107760;1247;23795;-78
2023/05/06 11:50:50;;;;;;;15.80;11.30;;;;;;;;;;107755;1247;22538;-78
2023/05/06 11:53:17;;;;;;;18.00;11.20;;;;;;;;;;107668;1247;25392;-80
2023/05/06 11:55:44;;;;;;;17.70;11.70;;;;;;;;;;107718;1250;22574;-79
2023/05/06 11:58:11;;;;;;;28.40;16.80;;;;;;;;;;107759;1251;22679;-78
2023/05/06 12:00:44;;;;;;;29.10;17.80;;;;;;;;;;107711;1247;22554;-81
2023/05/06 12:03:13;;;;;;;26.00;17.40;;;;;;;;;;107583;1250;24716;-80
2023/05/06 12:05:40;;;;;;;33.90;22.50;;;;;;;;;;107589;1253;22578;-78
2023/05/06 12:08:07;;;;;;;37.30;22.70;;;;;;;;;;107618;1247;24233;-80
2023/05/06 12:10:33;;;;;;;31.30;22.40;;;;;;;;;;107740;1248;22524;-78
2023/05/06 12:13:00;;;;;;;30.80;19.90;;;;;;;;;;107598;1247;22532;-78
2023/05/06 12:15:26;;;;;;;25.50;18.50;;;;;;;;;;107789;1252;22526;-79
2023/05/06 12:17:52;;;;;;;25.60;19.10;;;;;;;;;;107563;1247;24211;-79
2023/05/06 12:20:20;;;;;;;30.40;20.60;;;;;;;;;;107777;1253;25248;-78
2023/05/06 12:22:54;;;;;;;38.80;25.10;;;;;;;;;;107788;1247;22560;-80
2023/05/06 12:25:20;;;;;;;32.50;23.70;;;;;;;;;;107584;1247;22590;-80
2023/05/06 12:27:47;;;;;;;33.10;23.90;;;;;;;;;;107759;1247;22540;-78
2023/05/06 12:30:13;;;;;;;36.50;22.40;;;;;;;;;;107763;1252;22530;-78
2023/05/06 12:32:55;;;;;;;32.30;23.10;;;;;;;;;;107748;1247;23754;-78
2023/05/06 12:35:29;;;;;;;25.50;17.20;;;;;;;;;;107863;1247;22544;-79
2023/05/06 12:37:55;;;;;;;25.50;19.00;;;;;;;;;;107746;1247;24221;-79
2023/05/06 12:40:22;;;;;;;23.00;17.00;;;;;;;;;;107643;1254;22532;-78
2023/05/06 12:42:54;;;;;;;24.60;17.00;;;;;;;;;;107760;1247;22530;-78
2023/05/06 12:45:21;;;;;;;34.90;24.00;;;;;;;;;;107794;1247;22653;-78
2023/05/06 12:47:50;;;;;;;41.80;31.00;;;;;;;;;;107713;1247;22546;-78
2023/05/06 12:50:29;;;;;;;36.70;28.30;;;;;;;;;;107750;1247;24310;-80
2023/05/06 12:52:55;;;;;;;39.70;29.40;;;;;;;;;;107682;1250;22517;-80
2023/05/06 12:55:24;;;;;;;33.70;25.10;;;;;;;;;;107747;1248;25577;-78
2023/05/06 12:57:54;;;;;;;32.00;22.80;;;;;;;;;;107595;1247;25229;-78
2023/05/06 13:00:20;;;;;;;32.70;22.40;;;;;;;;;;107582;1247;24187;-80
2023/05/06 13:02:47;;;;;;;27.40;19.00;;;;;;;;;;107528;1250;22529;-80
2023/05/06 13:05:13;;;;;;;32.10;23.50;;;;;;;;;;107765;1247;24195;-80
2023/05/06 13:07:40;;;;;;;26.30;19.80;;;;;;;;;;107706;1248;22546;-80
2023/05/06 13:10:07;;;;;;;42.90;26.40;;;;;;;;;;107756;1248;22717;-78
2023/05/06 13:12:33;;;;;;;30.30;21.90;;;;;;;;;;107875;1247;22643;-80
2023/05/06 13:15:00;;;;;;;27.00;17.90;;;;;;;;;;107724;1248;25217;-78
2023/05/06 13:17:26;;;;;;;28.00;19.70;;;;;;;;;;107733;1252;22536;-80
2023/05/06 13:19:53;;;;;;;30.60;21.80;;;;;;;;;;107719;1248;22543;-78
2023/05/06 13:22:19;;;;;;;28.10;21.60;;;;;;;;;;107732;1248;22546;-80
2023/05/06 13:24:45;;;;;;;33.90;21.10;;;;;;;;;;107750;1248;22534;-78
2023/05/06 13:27:12;;;;;;;49.20;35.20;;;;;;;;;;107712;1247;26346;-80
2023/05/06 13:29:38;;;;;;;50.60;38.50;;;;;;;;;;107752;1247;25272;-78
2023/05/06 13:32:05;;;;;;;26.40;17.00;;;;;;;;;;107679;1248;22583;-78
2023/05/06 13:34:31;;;;;;;28.40;17.80;;;;;;;;;;107737;1248;25198;-80
2023/05/06 13:36:58;;;;;;;31.70;22.60;;;;;;;;;;107689;1247;22534;-78
2023/05/06 13:39:24;;;;;;;38.80;29.80;;;;;;;;;;107709;1248;25016;-78
2023/05/06 13:41:50;;;;;;;25.90;21.30;;;;;;;;;;107650;1248;24236;-77
2023/05/06 13:44:20;;;;;;;31.80;23.60;;;;;;;;;;107738;1252;22518;-78
2023/05/06 13:46:46;;;;;;;25.30;17.90;;;;;;;;;;107709;1247;24064;-77
2023/05/06 13:49:13;;;;;;;24.60;19.00;;;;;;;;;;107692;1248;22638;-79
2023/05/06 13:51:39;;;;;;;50.90;46.10;;;;;;;;;;107716;1247;22605;-79
2023/05/06 13:54:05;;;;;;;40.60;36.30;;;;;;;;;;107531;1253;24236;-81
2023/05/06 13:56:32;;;;;;;25.40;21.70;;;;;;;;;;107761;1248;26368;-78
2023/05/06 13:58:59;;;;;;;20.50;15.40;;;;;;;;;;107679;1250;162861;-81
2023/05/06 14:01:25;;;;;;;53.00;47.90;;;;;;;;;;107651;1250;22542;-80
2023/05/06 14:03:51;;;;;;;30.30;22.50;;;;;;;;;;107569;1250;22543;-78
2023/05/06 14:06:18;;;;;;;43.70;28.50;;;;;;;;;;107555;1251;25816;-80
2023/05/06 14:08:45;;;;;;;84.50;76.90;;;;;;;;;;107581;1251;22511;-79
2023/05/06 14:11:11;;;;;;;35.40;25.50;;;;;;;;;;107576;1250;25463;-81